Airfield :
LOGIN :

Register | Disclaimer

   EN    FR    IT 

 










Legend :    VFR   Marginal VFR   IFR   Intensive IFR   Very Intensive IFR
Visi :
Ceiling :
>= 8 km
>= 3000ft
5 to 8 km
1000 to 3000 ft
1500m to 5 km
500 to 1000 ft
800 to 1500m
200 to 500 ft
< 800m
< 200 ft
Symbols :   Thunderstorms  Fog  Heavy snow  Heavy precipitations  Wind > 20 kt
SIGMETs :     Misc.  Thunderstorms  Icing  Turbulence  Mountain Waves  Volcanic Ashes







- Airport Elevation : 160 ft
- IATA code : FMO


EDDG - Münster Osnabrück Int.

CURRENT METAR :
  • 270720Z 34008KT 300V020 9999 FEW021 15/09 Q1029 NOSIG

EXPIRED METARs :
  • 270650Z 35008KT 320V020 9999 FEW019 14/08 Q1029 NOSIG
  • 270620Z 35008KT 9999 SCT017 14/09 Q1028 NOSIG
  • 270550Z 33009KT 9999 BKN017 14/09 Q1028 NOSIG
  • 270520Z 34006KT 290V030 9999 BKN017 14/09 Q1028 NOSIG
  • 270450Z 36008KT 330V040 9999 BKN017 13/09 Q1028 NOSIG

TAF TAF EDDG
Valid from the 27 at 06:00 until the 28 at 06:00 UTC


270500Z 2706/2806 35008KT 9999 SCT020
TEMPO 2706/2708 BKN014
BECMG 2720/2723 VRB03KT
TEMPO 2801/2806 BKN013
No reported NOTAMs for that airfield.



MET'MAP, your aeronautical weather chart ! - Copyright ORBIFLY December 2007 - Disclaimer

ORBIFLY MET'MAP TEAM :

Programming & Development : Alexandra Zaïnal
Concept & Development : Baudouin d'Aumeries
Co-Development & Prog : Marc-Olivier Méhu
Technical & hardware support : Manuel Goepfert

Contact : metmap@orbifly.com




SOURCES & CREDITS :

   NOAA